RYR792 LPPR-LPPT
Flight info
| Callsign | RYR792 |
|---|---|
| Flight time | 0h 41m |
| Altitude | 31000 |
| Route | MANIK DCT ABRIL DCT XAMAX |
| Aircraft | B38M/M-SDE1FGHILORVWXY/HB1 |
Departure
| Time | 2026-05-04 10:51 |
|---|---|
| Airport | Francisco de Sá Carneiro Airport (LPPR) |
Arrival
| Time | 2026-05-04 11:33 |
|---|---|
| Airport | Lisbon Humberto Delgado Airport (LPPT) |
| Time | Latitude | Longitude | Altitude | Speed | Heading |
|---|---|---|---|---|---|
| 2026-05-04 10:16 | 41.23852 | -8.67586 | 238 ft | 0 kts | 258° |
| 2026-05-04 10:44 | 41.23890 | -8.67494 | 239 ft | 4 kts | 171° |
| 2026-05-04 10:45 | 41.23903 | -8.67497 | 239 ft | 1 kts | 168° |
| 2026-05-04 10:45 | 41.23904 | -8.67497 | 239 ft | 0 kts | 168° |
| 2026-05-04 10:47 | 41.23868 | -8.67487 | 239 ft | 9 kts | 168° |
| 2026-05-04 10:49 | 41.23611 | -8.67600 | 237 ft | 0 kts | 260° |
| 2026-05-04 10:50 | 41.23604 | -8.67658 | 240 ft | 7 kts | 260° |
| 2026-05-04 10:51 | 41.30346 | -8.69732 | 1633 ft | 318 kts | 346° |
| 2026-05-04 10:52 | 41.32503 | -8.70333 | 3197 ft | 292 kts | 346° |
| 2026-05-04 10:52 | 41.34186 | -8.70962 | 6102 ft | 222 kts | 338° |
| 2026-05-04 10:52 | 41.35692 | -8.71656 | 6986 ft | 246 kts | 341° |
| 2026-05-04 10:54 | 41.40213 | -8.82353 | 10577 ft | 259 kts | 221° |
| 2026-05-04 10:54 | 41.38650 | -8.83634 | 11174 ft | 272 kts | 203° |
| 2026-05-04 10:56 | 41.23683 | -8.81435 | 15505 ft | 342 kts | 173° |
| 2026-05-04 10:56 | 41.21327 | -8.80883 | 16116 ft | 348 kts | 173° |
| 2026-05-04 10:56 | 41.18916 | -8.80318 | 16738 ft | 353 kts | 173° |
| 2026-05-04 10:57 | 41.16477 | -8.79746 | 17344 ft | 359 kts | 174° |
| 2026-05-04 10:57 | 41.13987 | -8.79162 | 17841 ft | 367 kts | 174° |
| 2026-05-04 10:57 | 41.11450 | -8.78568 | 18357 ft | 374 kts | 174° |
| 2026-05-04 10:57 | 41.08861 | -8.77961 | 18828 ft | 380 kts | 174° |
| 2026-05-04 10:58 | 41.06237 | -8.77348 | 19265 ft | 385 kts | 174° |
| 2026-05-04 10:58 | 41.03618 | -8.76735 | 19733 ft | 390 kts | 174° |
| 2026-05-04 10:58 | 41.00890 | -8.76099 | 20222 ft | 395 kts | 174° |
| 2026-05-04 10:58 | 40.98198 | -8.75471 | 20706 ft | 399 kts | 175° |
| 2026-05-04 10:59 | 40.95461 | -8.74833 | 21201 ft | 402 kts | 175° |
| 2026-05-04 10:59 | 40.92688 | -8.74187 | 21708 ft | 405 kts | 175° |
| 2026-05-04 10:59 | 40.89907 | -8.73541 | 22226 ft | 408 kts | 175° |
| 2026-05-04 10:59 | 40.87095 | -8.72887 | 22746 ft | 411 kts | 175° |
| 2026-05-04 11:00 | 40.84254 | -8.72227 | 23028 ft | 420 kts | 175° |
| 2026-05-04 11:01 | 40.64298 | -8.67608 | 23081 ft | 453 kts | 174° |
| 2026-05-04 11:02 | 40.61187 | -8.66891 | 23081 ft | 453 kts | 174° |
| 2026-05-04 11:02 | 40.58086 | -8.66176 | 23085 ft | 453 kts | 174° |
| 2026-05-04 11:05 | 40.20516 | -8.81717 | 15340 ft | 402 kts | 206° |
| 2026-05-04 11:06 | 40.17954 | -8.83162 | 14745 ft | 400 kts | 206° |
| 2026-05-04 11:06 | 40.15440 | -8.84578 | 14200 ft | 397 kts | 206° |
| 2026-05-04 11:06 | 40.12905 | -8.86004 | 13607 ft | 395 kts | 205° |
| 2026-05-04 11:06 | 40.10387 | -8.87420 | 13009 ft | 392 kts | 205° |
| 2026-05-04 11:08 | 39.93300 | -8.97006 | 9876 ft | 359 kts | 205° |
| 2026-05-04 11:10 | 39.79046 | -9.03816 | 8031 ft | 276 kts | 201° |
| 2026-05-04 11:12 | 39.66290 | -9.09404 | 8143 ft | 277 kts | 201° |
| 2026-05-04 11:12 | 39.64479 | -9.10195 | 8188 ft | 278 kts | 201° |
| 2026-05-04 11:12 | 39.62636 | -9.10972 | 8198 ft | 279 kts | 196° |
| 2026-05-04 11:12 | 39.60713 | -9.11340 | 8227 ft | 280 kts | 189° |
| 2026-05-04 11:13 | 39.58779 | -9.11652 | 8226 ft | 280 kts | 190° |
| 2026-05-04 11:13 | 39.56841 | -9.11995 | 8207 ft | 281 kts | 191° |
| 2026-05-04 11:13 | 39.54912 | -9.12349 | 8151 ft | 280 kts | 191° |
| 2026-05-04 11:13 | 39.52985 | -9.12715 | 8144 ft | 280 kts | 191° |
| 2026-05-04 11:14 | 39.51058 | -9.13086 | 8046 ft | 280 kts | 191° |
| 2026-05-04 11:14 | 39.49137 | -9.13460 | 7998 ft | 279 kts | 191° |
| 2026-05-04 11:14 | 39.47219 | -9.13837 | 8006 ft | 279 kts | 191° |
| 2026-05-04 11:16 | 39.33744 | -9.16472 | 8004 ft | 280 kts | 191° |
| 2026-05-04 11:16 | 39.31820 | -9.16848 | 7999 ft | 280 kts | 191° |
| 2026-05-04 11:16 | 39.29889 | -9.17225 | 7998 ft | 280 kts | 191° |
| 2026-05-04 11:17 | 39.27988 | -9.17596 | 7997 ft | 280 kts | 191° |
| 2026-05-04 11:17 | 39.26063 | -9.17972 | 8002 ft | 280 kts | 191° |
| 2026-05-04 11:19 | 39.12450 | -9.20628 | 5710 ft | 290 kts | 191° |
| 2026-05-04 11:19 | 39.10462 | -9.21014 | 5403 ft | 286 kts | 191° |
| 2026-05-04 11:19 | 39.08544 | -9.21386 | 5122 ft | 269 kts | 191° |
| 2026-05-04 11:19 | 39.06738 | -9.21736 | 4883 ft | 259 kts | 191° |
| 2026-05-04 11:20 | 39.04998 | -9.22073 | 4644 ft | 248 kts | 191° |
| 2026-05-04 11:20 | 39.03304 | -9.22400 | 4401 ft | 245 kts | 191° |
| 2026-05-04 11:20 | 39.01620 | -9.22726 | 4130 ft | 244 kts | 191° |
| 2026-05-04 11:20 | 38.99946 | -9.23050 | 4005 ft | 245 kts | 191° |
| 2026-05-04 11:22 | 38.87898 | -9.25378 | 3997 ft | 251 kts | 191° |
| 2026-05-04 11:22 | 38.86173 | -9.25712 | 4005 ft | 250 kts | 191° |
| 2026-05-04 11:23 | 38.84454 | -9.26044 | 3995 ft | 250 kts | 191° |
| 2026-05-04 11:23 | 38.82731 | -9.26377 | 3999 ft | 250 kts | 191° |
| 2026-05-04 11:24 | 38.72229 | -9.28403 | 4019 ft | 262 kts | 192° |
| 2026-05-04 11:25 | 38.70460 | -9.28743 | 4021 ft | 255 kts | 191° |
| 2026-05-04 11:25 | 38.68750 | -9.29069 | 4023 ft | 241 kts | 191° |
| 2026-05-04 11:25 | 38.67112 | -9.29384 | 4024 ft | 237 kts | 192° |
| 2026-05-04 11:26 | 38.63847 | -9.30014 | 4062 ft | 237 kts | 190° |
| 2026-05-04 11:27 | 38.60647 | -9.23166 | 3902 ft | 211 kts | 28° |
| 2026-05-04 11:28 | 38.61940 | -9.22290 | 3591 ft | 209 kts | 24° |
| 2026-05-04 11:28 | 38.63265 | -9.21541 | 3317 ft | 207 kts | 21° |
| 2026-05-04 11:28 | 38.64587 | -9.20835 | 3009 ft | 205 kts | 20° |
| 2026-05-04 11:28 | 38.65903 | -9.20130 | 2714 ft | 205 kts | 20° |
| 2026-05-04 11:29 | 38.67223 | -9.19425 | 2423 ft | 206 kts | 19° |
| 2026-05-04 11:29 | 38.68525 | -9.18731 | 2142 ft | 204 kts | 20° |
| 2026-05-04 11:29 | 38.69823 | -9.18033 | 1858 ft | 193 kts | 19° |
| 2026-05-04 11:29 | 38.71015 | -9.17399 | 1606 ft | 178 kts | 20° |
| 2026-05-04 11:31 | 38.77757 | -9.13799 | 350 ft | 119 kts | 21° |
| 2026-05-04 11:33 | 38.78343 | -9.13389 | 353 ft | 6 kts | 51° |
| 2026-05-04 11:33 | 38.78370 | -9.13330 | 355 ft | 9 kts | 77° |
| 2026-05-04 11:33 | 38.78336 | -9.13265 | 350 ft | 11 kts | 171° |
| 2026-05-04 11:34 | 38.78268 | -9.13285 | 354 ft | 10 kts | 198° |
| 2026-05-04 11:34 | 38.78197 | -9.13320 | 354 ft | 12 kts | 204° |
| 2026-05-04 11:34 | 38.78113 | -9.13368 | 351 ft | 14 kts | 207° |
| 2026-05-04 11:34 | 38.78022 | -9.13426 | 356 ft | 15 kts | 199° |
| 2026-05-04 11:35 | 38.77915 | -9.13476 | 351 ft | 17 kts | 202° |
| 2026-05-04 11:35 | 38.77799 | -9.13543 | 354 ft | 19 kts | 205° |
| 2026-05-04 11:35 | 38.77670 | -9.13595 | 349 ft | 20 kts | 182° |
| 2026-05-04 11:35 | 38.77525 | -9.13564 | 349 ft | 22 kts | 169° |
| 2026-05-04 11:36 | 38.77370 | -9.13522 | 354 ft | 23 kts | 168° |
| 2026-05-04 11:36 | 38.77206 | -9.13480 | 349 ft | 25 kts | 168° |
| 2026-05-04 11:36 | 38.77036 | -9.13424 | 357 ft | 26 kts | 169° |
| 2026-05-04 11:36 | 38.76864 | -9.13384 | 353 ft | 26 kts | 170° |
| 2026-05-04 11:37 | 38.76804 | -9.13370 | 349 ft | 6 kts | 169° |
| 2026-05-04 11:37 | 38.76735 | -9.13391 | 353 ft | 17 kts | 211° |
| 2026-05-04 11:37 | 38.76641 | -9.13533 | 358 ft | 23 kts | 259° |
| 2026-05-04 11:37 | 38.76614 | -9.13737 | 357 ft | 24 kts | 258° |
| 2026-05-04 11:38 | 38.76571 | -9.13922 | 349 ft | 16 kts | 218° |
| 2026-05-04 11:38 | 38.76517 | -9.13896 | 350 ft | 5 kts | 89° |
| 2026-05-04 11:38 | 38.76515 | -9.13857 | 349 ft | 3 kts | 119° |
| 2026-05-04 11:38 | 38.76493 | -9.13844 | 349 ft | 8 kts | 163° |
| 2026-05-04 11:39 | 38.76462 | -9.13835 | 349 ft | 0 kts | 171° |